sensor_id;sensor_type;location;lat;lon;timestamp;P1;durP1;ratioP1;P2;durP2;ratioP2
78916;SDS011;68315;48.608;11.436;2024-02-21T00:00:40;8.73;;;4.13;;
78916;SDS011;68315;48.608;11.436;2024-02-21T00:03:06;6.32;;;3.72;;
78916;SDS011;68315;48.608;11.436;2024-02-21T00:05:32;7.78;;;3.80;;
78916;SDS011;68315;48.608;11.436;2024-02-21T00:07:58;7.85;;;4.00;;
78916;SDS011;68315;48.608;11.436;2024-02-21T00:10:24;6.53;;;4.10;;
78916;SDS011;68315;48.608;11.436;2024-02-21T00:12:50;7.57;;;3.85;;
78916;SDS011;68315;48.608;11.436;2024-02-21T00:15:15;8.75;;;3.47;;
78916;SDS011;68315;48.608;11.436;2024-02-21T00:17:40;8.63;;;3.55;;
78916;SDS011;68315;48.608;11.436;2024-02-21T00:20:06;8.52;;;4.10;;
78916;SDS011;68315;48.608;11.436;2024-02-21T00:22:32;6.53;;;3.42;;
78916;SDS011;68315;48.608;11.436;2024-02-21T00:24:58;10.38;;;3.33;;
78916;SDS011;68315;48.608;11.436;2024-02-21T00:27:24;10.20;;;3.63;;
78916;SDS011;68315;48.608;11.436;2024-02-21T00:29:49;8.07;;;3.70;;
78916;SDS011;68315;48.608;11.436;2024-02-21T00:32:15;10.10;;;3.67;;
78916;SDS011;68315;48.608;11.436;2024-02-21T00:34:40;8.18;;;3.40;;
78916;SDS011;68315;48.608;11.436;2024-02-21T00:37:05;8.82;;;3.42;;
78916;SDS011;68315;48.608;11.436;2024-02-21T00:39:31;12.10;;;3.75;;
78916;SDS011;68315;48.608;11.436;2024-02-21T00:41:56;8.82;;;3.38;;
78916;SDS011;68315;48.608;11.436;2024-02-21T00:44:21;10.90;;;3.72;;
78916;SDS011;68315;48.608;11.436;2024-02-21T00:46:46;7.68;;;3.25;;
78916;SDS011;68315;48.608;11.436;2024-02-21T00:49:12;8.73;;;3.42;;
78916;SDS011;68315;48.608;11.436;2024-02-21T00:51:37;9.75;;;3.70;;
78916;SDS011;68315;48.608;11.436;2024-02-21T00:54:02;9.40;;;3.83;;
78916;SDS011;68315;48.608;11.436;2024-02-21T00:56:28;8.25;;;3.33;;
78916;SDS011;68315;48.608;11.436;2024-02-21T00:58:54;5.18;;;3.47;;
78916;SDS011;68315;48.608;11.436;2024-02-21T01:01:23;9.50;;;3.50;;
78916;SDS011;68315;48.608;11.436;2024-02-21T01:03:49;7.43;;;3.38;;
78916;SDS011;68315;48.608;11.436;2024-02-21T01:06:16;8.20;;;3.00;;
78916;SDS011;68315;48.608;11.436;2024-02-21T01:08:41;10.30;;;3.65;;
78916;SDS011;68315;48.608;11.436;2024-02-21T01:11:06;7.97;;;3.80;;
78916;SDS011;68315;48.608;11.436;2024-02-21T01:13:31;8.60;;;4.00;;
78916;SDS011;68315;48.608;11.436;2024-02-21T01:15:57;10.90;;;3.38;;
78916;SDS011;68315;48.608;11.436;2024-02-21T01:18:23;6.28;;;3.60;;
78916;SDS011;68315;48.608;11.436;2024-02-21T01:20:48;6.25;;;3.10;;
78916;SDS011;68315;48.608;11.436;2024-02-21T01:23:13;5.45;;;2.90;;
78916;SDS011;68315;48.608;11.436;2024-02-21T01:25:39;7.45;;;3.40;;
78916;SDS011;68315;48.608;11.436;2024-02-21T01:28:04;11.13;;;3.95;;
78916;SDS011;68315;48.608;11.436;2024-02-21T01:30:29;11.52;;;4.13;;
78916;SDS011;68315;48.608;11.436;2024-02-21T01:32:54;10.10;;;3.60;;
78916;SDS011;68315;48.608;11.436;2024-02-21T01:35:20;12.23;;;3.97;;
78916;SDS011;68315;48.608;11.436;2024-02-21T01:37:45;7.53;;;3.35;;
78916;SDS011;68315;48.608;11.436;2024-02-21T01:40:10;8.57;;;3.47;;
78916;SDS011;68315;48.608;11.436;2024-02-21T01:42:39;5.40;;;3.15;;
78916;SDS011;68315;48.608;11.436;2024-02-21T01:45:07;9.15;;;3.70;;
78916;SDS011;68315;48.608;11.436;2024-02-21T01:47:33;10.23;;;4.00;;
78916;SDS011;68315;48.608;11.436;2024-02-21T01:49:59;7.05;;;3.10;;
78916;SDS011;68315;48.608;11.436;2024-02-21T01:52:24;8.25;;;3.22;;
78916;SDS011;68315;48.608;11.436;2024-02-21T01:54:50;8.23;;;3.17;;
78916;SDS011;68315;48.608;11.436;2024-02-21T01:57:15;5.88;;;3.10;;
78916;SDS011;68315;48.608;11.436;2024-02-21T01:59:40;9.15;;;3.30;;
78916;SDS011;68315;48.608;11.436;2024-02-21T02:02:05;12.23;;;4.03;;
78916;SDS011;68315;48.608;11.436;2024-02-21T02:04:31;10.18;;;3.85;;
78916;SDS011;68315;48.608;11.436;2024-02-21T02:06:57;7.95;;;3.30;;
78916;SDS011;68315;48.608;11.436;2024-02-21T02:09:26;6.45;;;3.03;;
78916;SDS011;68315;48.608;11.436;2024-02-21T02:11:51;6.63;;;3.00;;
78916;SDS011;68315;48.608;11.436;2024-02-21T02:14:16;7.78;;;2.97;;
78916;SDS011;68315;48.608;11.436;2024-02-21T02:16:42;9.27;;;3.05;;
78916;SDS011;68315;48.608;11.436;2024-02-21T02:19:07;7.93;;;2.92;;
78916;SDS011;68315;48.608;11.436;2024-02-21T02:21:32;9.57;;;3.70;;
78916;SDS011;68315;48.608;11.436;2024-02-21T02:24:01;7.63;;;3.63;;
78916;SDS011;68315;48.608;11.436;2024-02-21T02:26:27;12.05;;;3.22;;
78916;SDS011;68315;48.608;11.436;2024-02-21T02:28:52;6.82;;;3.03;;
78916;SDS011;68315;48.608;11.436;2024-02-21T02:31:17;10.48;;;2.95;;
78916;SDS011;68315;48.608;11.436;2024-02-21T02:33:43;7.45;;;3.33;;
78916;SDS011;68315;48.608;11.436;2024-02-21T02:36:09;7.55;;;3.45;;
78916;SDS011;68315;48.608;11.436;2024-02-21T02:38:34;5.78;;;2.83;;
78916;SDS011;68315;48.608;11.436;2024-02-21T02:40:59;6.43;;;2.75;;
78916;SDS011;68315;48.608;11.436;2024-02-21T02:43:25;6.03;;;2.90;;
78916;SDS011;68315;48.608;11.436;2024-02-21T02:45:50;6.25;;;2.72;;
78916;SDS011;68315;48.608;11.436;2024-02-21T02:48:15;6.38;;;2.90;;
78916;SDS011;68315;48.608;11.436;2024-02-21T02:50:40;9.05;;;3.05;;
78916;SDS011;68315;48.608;11.436;2024-02-21T02:53:06;6.20;;;2.78;;
78916;SDS011;68315;48.608;11.436;2024-02-21T02:55:31;6.80;;;3.28;;
78916;SDS011;68315;48.608;11.436;2024-02-21T02:57:56;8.38;;;3.10;;
78916;SDS011;68315;48.608;11.436;2024-02-21T03:00:22;9.02;;;3.10;;
78916;SDS011;68315;48.608;11.436;2024-02-21T03:02:48;6.30;;;3.17;;
78916;SDS011;68315;48.608;11.436;2024-02-21T03:05:15;5.15;;;3.10;;
78916;SDS011;68315;48.608;11.436;2024-02-21T03:07:41;8.57;;;3.03;;
78916;SDS011;68315;48.608;11.436;2024-02-21T03:10:08;9.38;;;3.00;;
78916;SDS011;68315;48.608;11.436;2024-02-21T03:12:33;6.05;;;3.22;;
78916;SDS011;68315;48.608;11.436;2024-02-21T03:14:59;8.00;;;3.28;;
78916;SDS011;68315;48.608;11.436;2024-02-21T03:17:24;8.43;;;3.42;;
78916;SDS011;68315;48.608;11.436;2024-02-21T03:19:51;8.88;;;3.00;;
78916;SDS011;68315;48.608;11.436;2024-02-21T03:22:17;9.77;;;3.40;;
78916;SDS011;68315;48.608;11.436;2024-02-21T03:24:42;7.68;;;3.13;;
78916;SDS011;68315;48.608;11.436;2024-02-21T03:27:08;10.43;;;3.28;;
78916;SDS011;68315;48.608;11.436;2024-02-21T03:29:33;6.65;;;3.58;;
78916;SDS011;68315;48.608;11.436;2024-02-21T03:31:59;12.48;;;3.53;;
78916;SDS011;68315;48.608;11.436;2024-02-21T03:34:24;7.13;;;2.80;;
78916;SDS011;68315;48.608;11.436;2024-02-21T03:36:49;11.90;;;3.58;;
78916;SDS011;68315;48.608;11.436;2024-02-21T03:39:14;7.60;;;2.97;;
78916;SDS011;68315;48.608;11.436;2024-02-21T03:41:40;7.85;;;3.10;;
78916;SDS011;68315;48.608;11.436;2024-02-21T03:44:05;9.00;;;3.85;;
78916;SDS011;68315;48.608;11.436;2024-02-21T03:46:30;12.43;;;3.10;;
78916;SDS011;68315;48.608;11.436;2024-02-21T03:48:56;7.10;;;2.83;;
78916;SDS011;68315;48.608;11.436;2024-02-21T03:51:22;7.70;;;3.42;;
78916;SDS011;68315;48.608;11.436;2024-02-21T03:53:47;6.80;;;3.05;;
78916;SDS011;68315;48.608;11.436;2024-02-21T03:56:12;5.22;;;3.20;;
78916;SDS011;68315;48.608;11.436;2024-02-21T03:58:37;8.85;;;3.03;;
78916;SDS011;68315;48.608;11.436;2024-02-21T04:01:03;6.65;;;3.25;;
78916;SDS011;68315;48.608;11.436;2024-02-21T04:03:28;8.23;;;3.50;;
78916;SDS011;68315;48.608;11.436;2024-02-21T04:05:54;5.22;;;3.13;;
78916;SDS011;68315;48.608;11.436;2024-02-21T04:08:19;12.20;;;3.50;;
78916;SDS011;68315;48.608;11.436;2024-02-21T04:10:45;6.78;;;3.15;;
78916;SDS011;68315;48.608;11.436;2024-02-21T04:13:10;8.43;;;3.80;;
78916;SDS011;68315;48.608;11.436;2024-02-21T04:15:35;9.63;;;3.53;;
78916;SDS011;68315;48.608;11.436;2024-02-21T04:18:01;7.72;;;3.53;;
78916;SDS011;68315;48.608;11.436;2024-02-21T04:20:26;10.05;;;3.05;;
78916;SDS011;68315;48.608;11.436;2024-02-21T04:22:52;9.27;;;3.70;;
78916;SDS011;68315;48.608;11.436;2024-02-21T04:25:17;6.18;;;3.13;;
78916;SDS011;68315;48.608;11.436;2024-02-21T04:27:42;7.07;;;3.00;;
78916;SDS011;68315;48.608;11.436;2024-02-21T04:30:08;9.10;;;3.20;;
78916;SDS011;68315;48.608;11.436;2024-02-21T04:32:34;8.15;;;3.40;;
78916;SDS011;68315;48.608;11.436;2024-02-21T04:35:00;6.25;;;2.70;;
78916;SDS011;68315;48.608;11.436;2024-02-21T04:37:25;8.35;;;3.00;;
78916;SDS011;68315;48.608;11.436;2024-02-21T04:39:50;7.15;;;2.85;;
78916;SDS011;68315;48.608;11.436;2024-02-21T04:42:16;6.93;;;2.60;;
78916;SDS011;68315;48.608;11.436;2024-02-21T04:44:42;8.65;;;3.13;;
78916;SDS011;68315;48.608;11.436;2024-02-21T04:47:08;8.10;;;3.05;;
78916;SDS011;68315;48.608;11.436;2024-02-21T04:49:33;7.50;;;2.60;;
78916;SDS011;68315;48.608;11.436;2024-02-21T04:51:59;7.15;;;3.08;;
78916;SDS011;68315;48.608;11.436;2024-02-21T04:54:24;10.73;;;3.28;;
78916;SDS011;68315;48.608;11.436;2024-02-21T04:56:50;7.97;;;3.40;;
78916;SDS011;68315;48.608;11.436;2024-02-21T04:59:15;6.18;;;3.10;;
78916;SDS011;68315;48.608;11.436;2024-02-21T05:01:40;7.10;;;3.70;;
78916;SDS011;68315;48.608;11.436;2024-02-21T05:04:06;13.75;;;3.30;;
78916;SDS011;68315;48.608;11.436;2024-02-21T05:06:31;7.72;;;3.00;;
78916;SDS011;68315;48.608;11.436;2024-02-21T05:08:56;6.85;;;3.28;;
78916;SDS011;68315;48.608;11.436;2024-02-21T05:11:23;7.68;;;3.05;;
78916;SDS011;68315;48.608;11.436;2024-02-21T05:13:49;7.63;;;3.42;;
78916;SDS011;68315;48.608;11.436;2024-02-21T05:16:14;6.78;;;3.03;;
78916;SDS011;68315;48.608;11.436;2024-02-21T05:18:40;8.32;;;3.45;;
78916;SDS011;68315;48.608;11.436;2024-02-21T05:21:05;7.97;;;3.00;;
78916;SDS011;68315;48.608;11.436;2024-02-21T05:23:31;6.93;;;3.35;;
78916;SDS011;68315;48.608;11.436;2024-02-21T05:25:56;8.00;;;3.15;;
78916;SDS011;68315;48.608;11.436;2024-02-21T05:28:21;6.25;;;2.85;;
78916;SDS011;68315;48.608;11.436;2024-02-21T05:30:46;11.25;;;3.65;;
78916;SDS011;68315;48.608;11.436;2024-02-21T05:33:12;8.90;;;3.15;;
78916;SDS011;68315;48.608;11.436;2024-02-21T05:35:37;6.07;;;3.17;;
78916;SDS011;68315;48.608;11.436;2024-02-21T05:38:03;7.40;;;3.05;;
78916;SDS011;68315;48.608;11.436;2024-02-21T05:40:36;10.50;;;3.28;;
78916;SDS011;68315;48.608;11.436;2024-02-21T05:43:01;7.50;;;3.13;;
78916;SDS011;68315;48.608;11.436;2024-02-21T05:45:27;5.97;;;2.85;;
78916;SDS011;68315;48.608;11.436;2024-02-21T05:47:52;5.00;;;2.90;;
78916;SDS011;68315;48.608;11.436;2024-02-21T05:50:17;4.18;;;2.65;;
78916;SDS011;68315;48.608;11.436;2024-02-21T05:52:42;4.85;;;3.25;;
78916;SDS011;68315;48.608;11.436;2024-02-21T05:55:07;6.38;;;2.45;;
78916;SDS011;68315;48.608;11.436;2024-02-21T05:57:34;7.22;;;3.17;;
78916;SDS011;68315;48.608;11.436;2024-02-21T05:59:59;4.68;;;2.67;;
78916;SDS011;68315;48.608;11.436;2024-02-21T06:02:25;6.25;;;3.25;;
78916;SDS011;68315;48.608;11.436;2024-02-21T06:04:50;7.05;;;2.75;;
78916;SDS011;68315;48.608;11.436;2024-02-21T06:07:15;5.60;;;2.50;;
78916;SDS011;68315;48.608;11.436;2024-02-21T06:09:40;6.60;;;3.63;;
78916;SDS011;68315;48.608;11.436;2024-02-21T06:12:06;6.63;;;3.33;;
78916;SDS011;68315;48.608;11.436;2024-02-21T06:14:31;3.97;;;2.65;;
78916;SDS011;68315;48.608;11.436;2024-02-21T06:16:56;4.78;;;2.58;;
78916;SDS011;68315;48.608;11.436;2024-02-21T06:19:22;4.00;;;2.45;;
78916;SDS011;68315;48.608;11.436;2024-02-21T06:21:47;6.13;;;3.17;;
78916;SDS011;68315;48.608;11.436;2024-02-21T06:24:13;6.00;;;2.28;;
78916;SDS011;68315;48.608;11.436;2024-02-21T06:26:40;6.78;;;2.80;;
78916;SDS011;68315;48.608;11.436;2024-02-21T06:29:05;7.85;;;2.35;;
78916;SDS011;68315;48.608;11.436;2024-02-21T06:31:31;8.30;;;2.80;;
78916;SDS011;68315;48.608;11.436;2024-02-21T06:33:57;8.15;;;3.08;;
78916;SDS011;68315;48.608;11.436;2024-02-21T06:36:22;2.85;;;2.20;;
78916;SDS011;68315;48.608;11.436;2024-02-21T06:38:47;5.18;;;2.30;;
78916;SDS011;68315;48.608;11.436;2024-02-21T06:41:16;4.63;;;2.22;;
78916;SDS011;68315;48.608;11.436;2024-02-21T06:43:43;5.03;;;2.33;;
78916;SDS011;68315;48.608;11.436;2024-02-21T06:46:09;7.07;;;2.70;;
78916;SDS011;68315;48.608;11.436;2024-02-21T06:48:34;3.25;;;2.10;;
78916;SDS011;68315;48.608;11.436;2024-02-21T06:50:59;4.30;;;2.30;;
78916;SDS011;68315;48.608;11.436;2024-02-21T06:53:24;3.90;;;2.05;;
78916;SDS011;68315;48.608;11.436;2024-02-21T06:55:50;4.97;;;2.80;;
78916;SDS011;68315;48.608;11.436;2024-02-21T06:58:15;6.05;;;2.47;;
78916;SDS011;68315;48.608;11.436;2024-02-21T07:00:42;5.72;;;3.08;;
78916;SDS011;68315;48.608;11.436;2024-02-21T07:03:08;4.78;;;2.55;;
78916;SDS011;68315;48.608;11.436;2024-02-21T07:05:33;4.30;;;2.60;;
78916;SDS011;68315;48.608;11.436;2024-02-21T07:07:58;4.88;;;2.40;;
78916;SDS011;68315;48.608;11.436;2024-02-21T07:10:23;5.18;;;2.33;;
78916;SDS011;68315;48.608;11.436;2024-02-21T07:12:49;5.00;;;2.75;;
78916;SDS011;68315;48.608;11.436;2024-02-21T07:15:14;3.65;;;2.30;;
78916;SDS011;68315;48.608;11.436;2024-02-21T07:17:40;4.05;;;2.55;;
78916;SDS011;68315;48.608;11.436;2024-02-21T07:20:05;5.28;;;3.15;;
78916;SDS011;68315;48.608;11.436;2024-02-21T07:22:31;4.32;;;2.72;;
78916;SDS011;68315;48.608;11.436;2024-02-21T07:24:56;8.13;;;3.10;;
78916;SDS011;68315;48.608;11.436;2024-02-21T07:27:21;4.22;;;2.60;;
78916;SDS011;68315;48.608;11.436;2024-02-21T07:29:46;5.00;;;2.33;;
78916;SDS011;68315;48.608;11.436;2024-02-21T07:32:14;3.92;;;2.50;;
78916;SDS011;68315;48.608;11.436;2024-02-21T07:34:39;5.10;;;2.90;;
78916;SDS011;68315;48.608;11.436;2024-02-21T07:37:04;7.65;;;2.60;;
78916;SDS011;68315;48.608;11.436;2024-02-21T07:39:30;5.00;;;2.60;;
78916;SDS011;68315;48.608;11.436;2024-02-21T07:41:55;5.00;;;2.55;;
78916;SDS011;68315;48.608;11.436;2024-02-21T07:44:20;6.18;;;2.88;;
78916;SDS011;68315;48.608;11.436;2024-02-21T07:46:45;5.88;;;2.55;;
78916;SDS011;68315;48.608;11.436;2024-02-21T07:49:10;3.65;;;2.55;;
78916;SDS011;68315;48.608;11.436;2024-02-21T07:51:36;4.03;;;2.40;;
78916;SDS011;68315;48.608;11.436;2024-02-21T07:54:01;3.08;;;2.38;;
78916;SDS011;68315;48.608;11.436;2024-02-21T07:56:27;5.57;;;2.75;;
78916;SDS011;68315;48.608;11.436;2024-02-21T07:58:52;4.10;;;2.15;;
78916;SDS011;68315;48.608;11.436;2024-02-21T08:01:21;3.95;;;2.28;;
78916;SDS011;68315;48.608;11.436;2024-02-21T08:03:46;5.32;;;2.28;;
78916;SDS011;68315;48.608;11.436;2024-02-21T08:06:12;4.68;;;2.33;;
78916;SDS011;68315;48.608;11.436;2024-02-21T08:08:38;4.63;;;2.53;;
78916;SDS011;68315;48.608;11.436;2024-02-21T08:11:03;4.43;;;2.50;;
78916;SDS011;68315;48.608;11.436;2024-02-21T08:13:29;6.00;;;2.60;;
78916;SDS011;68315;48.608;11.436;2024-02-21T08:15:54;5.95;;;2.67;;
78916;SDS011;68315;48.608;11.436;2024-02-21T08:18:19;3.30;;;2.30;;
78916;SDS011;68315;48.608;11.436;2024-02-21T08:20:44;4.80;;;2.40;;
78916;SDS011;68315;48.608;11.436;2024-02-21T08:23:10;5.05;;;2.40;;
78916;SDS011;68315;48.608;11.436;2024-02-21T08:25:35;3.10;;;2.30;;
78916;SDS011;68315;48.608;11.436;2024-02-21T08:28:00;4.70;;;2.05;;
78916;SDS011;68315;48.608;11.436;2024-02-21T08:30:25;6.75;;;2.28;;
78916;SDS011;68315;48.608;11.436;2024-02-21T08:32:51;4.38;;;2.15;;
78916;SDS011;68315;48.608;11.436;2024-02-21T08:35:16;5.28;;;2.28;;
78916;SDS011;68315;48.608;11.436;2024-02-21T08:37:44;4.95;;;2.20;;
78916;SDS011;68315;48.608;11.436;2024-02-21T08:40:12;5.57;;;2.47;;
78916;SDS011;68315;48.608;11.436;2024-02-21T08:42:41;3.75;;;2.00;;
78916;SDS011;68315;48.608;11.436;2024-02-21T08:45:07;3.67;;;1.90;;
78916;SDS011;68315;48.608;11.436;2024-02-21T08:47:32;3.83;;;2.00;;
78916;SDS011;68315;48.608;11.436;2024-02-21T08:49:58;6.15;;;2.65;;
78916;SDS011;68315;48.608;11.436;2024-02-21T08:52:23;4.70;;;2.30;;
78916;SDS011;68315;48.608;11.436;2024-02-21T08:54:48;4.75;;;2.25;;
78916;SDS011;68315;48.608;11.436;2024-02-21T08:57:13;4.80;;;2.20;;
78916;SDS011;68315;48.608;11.436;2024-02-21T08:59:39;5.85;;;2.50;;
78916;SDS011;68315;48.608;11.436;2024-02-21T09:02:05;4.22;;;2.00;;
78916;SDS011;68315;48.608;11.436;2024-02-21T09:04:32;5.90;;;2.00;;
78916;SDS011;68315;48.608;11.436;2024-02-21T09:06:57;5.15;;;2.20;;
78916;SDS011;68315;48.608;11.436;2024-02-21T09:09:22;4.75;;;2.50;;
78916;SDS011;68315;48.608;11.436;2024-02-21T09:11:47;4.55;;;2.40;;
78916;SDS011;68315;48.608;11.436;2024-02-21T09:14:13;5.15;;;2.58;;
78916;SDS011;68315;48.608;11.436;2024-02-21T09:16:38;4.20;;;2.55;;
78916;SDS011;68315;48.608;11.436;2024-02-21T09:19:03;3.65;;;2.08;;
78916;SDS011;68315;48.608;11.436;2024-02-21T09:21:28;5.50;;;2.60;;
78916;SDS011;68315;48.608;11.436;2024-02-21T09:23:54;5.57;;;2.80;;
78916;SDS011;68315;48.608;11.436;2024-02-21T09:26:19;4.35;;;2.33;;
78916;SDS011;68315;48.608;11.436;2024-02-21T09:28:45;5.93;;;2.30;;
78916;SDS011;68315;48.608;11.436;2024-02-21T09:31:10;8.40;;;2.60;;
78916;SDS011;68315;48.608;11.436;2024-02-21T09:33:35;8.15;;;2.65;;
78916;SDS011;68315;48.608;11.436;2024-02-21T09:36:01;5.53;;;2.60;;
78916;SDS011;68315;48.608;11.436;2024-02-21T09:38:27;5.68;;;2.72;;
78916;SDS011;68315;48.608;11.436;2024-02-21T09:40:59;4.70;;;2.70;;
78916;SDS011;68315;48.608;11.436;2024-02-21T09:43:29;7.47;;;2.65;;
78916;SDS011;68315;48.608;11.436;2024-02-21T09:45:54;7.03;;;2.70;;
78916;SDS011;68315;48.608;11.436;2024-02-21T09:51:09;7.55;;;2.53;;
78916;SDS011;68315;48.608;11.436;2024-02-21T09:53:37;5.70;;;2.50;;
78916;SDS011;68315;48.608;11.436;2024-02-21T09:56:03;5.50;;;2.63;;
78916;SDS011;68315;48.608;11.436;2024-02-21T09:58:30;9.48;;;2.95;;
78916;SDS011;68315;48.608;11.436;2024-02-21T10:00:55;6.28;;;2.70;;
78916;SDS011;68315;48.608;11.436;2024-02-21T10:03:22;6.40;;;2.05;;
78916;SDS011;68315;48.608;11.436;2024-02-21T10:05:48;7.32;;;2.60;;
78916;SDS011;68315;48.608;11.436;2024-02-21T10:08:17;7.57;;;2.50;;
78916;SDS011;68315;48.608;11.436;2024-02-21T10:10:43;8.00;;;2.15;;
78916;SDS011;68315;48.608;11.436;2024-02-21T10:13:09;20.15;;;3.42;;
78916;SDS011;68315;48.608;11.436;2024-02-21T10:15:35;4.00;;;1.90;;
78916;SDS011;68315;48.608;11.436;2024-02-21T10:18:00;5.00;;;2.30;;
78916;SDS011;68315;48.608;11.436;2024-02-21T10:20:28;5.72;;;2.40;;
78916;SDS011;68315;48.608;11.436;2024-02-21T10:23:00;5.95;;;2.50;;
78916;SDS011;68315;48.608;11.436;2024-02-21T10:25:27;4.85;;;2.40;;
78916;SDS011;68315;48.608;11.436;2024-02-21T10:27:52;5.05;;;2.53;;
78916;SDS011;68315;48.608;11.436;2024-02-21T10:30:18;12.40;;;2.63;;
78916;SDS011;68315;48.608;11.436;2024-02-21T10:32:50;5.00;;;2.75;;
78916;SDS011;68315;48.608;11.436;2024-02-21T10:35:24;6.30;;;2.30;;
78916;SDS011;68315;48.608;11.436;2024-02-21T10:37:50;5.63;;;2.50;;
78916;SDS011;68315;48.608;11.436;2024-02-21T10:40:20;5.47;;;2.40;;
78916;SDS011;68315;48.608;11.436;2024-02-21T10:42:45;7.50;;;2.88;;
78916;SDS011;68315;48.608;11.436;2024-02-21T10:45:12;7.55;;;2.42;;
78916;SDS011;68315;48.608;11.436;2024-02-21T10:47:37;6.93;;;2.20;;
78916;SDS011;68315;48.608;11.436;2024-02-21T10:50:05;5.60;;;2.55;;
78916;SDS011;68315;48.608;11.436;2024-02-21T10:55:20;5.15;;;1.63;;
78916;SDS011;68315;48.608;11.436;2024-02-21T10:57:51;3.25;;;1.88;;
78916;SDS011;68315;48.608;11.436;2024-02-21T11:00:17;5.30;;;1.85;;
78916;SDS011;68315;48.608;11.436;2024-02-21T11:02:43;5.45;;;1.88;;
78916;SDS011;68315;48.608;11.436;2024-02-21T11:05:10;3.80;;;1.60;;
78916;SDS011;68315;48.608;11.436;2024-02-21T11:07:37;3.38;;;1.92;;
78916;SDS011;68315;48.608;11.436;2024-02-21T11:10:02;3.88;;;1.63;;
78916;SDS011;68315;48.608;11.436;2024-02-21T11:12:28;6.03;;;1.80;;
78916;SDS011;68315;48.608;11.436;2024-02-21T11:15:04;3.63;;;1.73;;
78916;SDS011;68315;48.608;11.436;2024-02-21T11:17:31;5.82;;;1.65;;
78916;SDS011;68315;48.608;11.436;2024-02-21T11:19:56;3.40;;;1.80;;
78916;SDS011;68315;48.608;11.436;2024-02-21T11:22:21;4.53;;;1.70;;
78916;SDS011;68315;48.608;11.436;2024-02-21T11:24:49;4.07;;;1.55;;
78916;SDS011;68315;48.608;11.436;2024-02-21T11:27:16;3.03;;;1.40;;
78916;SDS011;68315;48.608;11.436;2024-02-21T11:29:57;5.65;;;1.77;;
78916;SDS011;68315;48.608;11.436;2024-02-21T11:32:23;4.05;;;1.33;;
78916;SDS011;68315;48.608;11.436;2024-02-21T11:34:59;4.05;;;1.55;;
78916;SDS011;68315;48.608;11.436;2024-02-21T11:37:27;3.95;;;1.60;;
78916;SDS011;68315;48.608;11.436;2024-02-21T11:39:53;4.50;;;1.67;;
78916;SDS011;68315;48.608;11.436;2024-02-21T11:42:19;4.15;;;1.50;;
78916;SDS011;68315;48.608;11.436;2024-02-21T11:44:45;4.43;;;1.55;;
78916;SDS011;68315;48.608;11.436;2024-02-21T11:47:10;3.78;;;1.55;;
78916;SDS011;68315;48.608;11.436;2024-02-21T11:49:36;3.97;;;1.83;;
78916;SDS011;68315;48.608;11.436;2024-02-21T11:52:04;3.88;;;1.42;;
78916;SDS011;68315;48.608;11.436;2024-02-21T11:54:30;1.92;;;1.30;;
78916;SDS011;68315;48.608;11.436;2024-02-21T11:56:56;4.78;;;1.55;;
78916;SDS011;68315;48.608;11.436;2024-02-21T11:59:21;3.40;;;1.42;;
78916;SDS011;68315;48.608;11.436;2024-02-21T12:01:47;2.72;;;1.27;;
78916;SDS011;68315;48.608;11.436;2024-02-21T12:04:13;2.95;;;1.42;;
78916;SDS011;68315;48.608;11.436;2024-02-21T12:06:42;3.85;;;1.27;;
78916;SDS011;68315;48.608;11.436;2024-02-21T12:09:08;3.33;;;1.52;;
78916;SDS011;68315;48.608;11.436;2024-02-21T12:11:35;3.00;;;1.40;;
78916;SDS011;68315;48.608;11.436;2024-02-21T12:14:01;2.67;;;1.50;;
78916;SDS011;68315;48.608;11.436;2024-02-21T12:16:28;2.38;;;1.30;;
78916;SDS011;68315;48.608;11.436;2024-02-21T12:18:55;5.18;;;1.70;;
78916;SDS011;68315;48.608;11.436;2024-02-21T12:21:29;3.65;;;1.20;;
78916;SDS011;68315;48.608;11.436;2024-02-21T12:23:57;2.72;;;1.10;;
78916;SDS011;68315;48.608;11.436;2024-02-21T12:26:22;2.08;;;1.20;;
78916;SDS011;68315;48.608;11.436;2024-02-21T12:28:48;1.98;;;1.10;;
78916;SDS011;68315;48.608;11.436;2024-02-21T12:31:13;3.78;;;1.17;;
78916;SDS011;68315;48.608;11.436;2024-02-21T12:33:39;2.25;;;1.00;;
78916;SDS011;68315;48.608;11.436;2024-02-21T12:36:04;2.70;;;1.30;;
78916;SDS011;68315;48.608;11.436;2024-02-21T12:38:30;2.17;;;1.10;;
78916;SDS011;68315;48.608;11.436;2024-02-21T12:40:55;3.85;;;1.30;;
78916;SDS011;68315;48.608;11.436;2024-02-21T12:43:22;2.75;;;1.00;;
78916;SDS011;68315;48.608;11.436;2024-02-21T12:45:47;2.25;;;1.08;;
78916;SDS011;68315;48.608;11.436;2024-02-21T12:48:13;1.70;;;0.90;;
78916;SDS011;68315;48.608;11.436;2024-02-21T12:50:39;1.50;;;0.88;;
78916;SDS011;68315;48.608;11.436;2024-02-21T12:53:05;1.02;;;0.80;;
78916;SDS011;68315;48.608;11.436;2024-02-21T12:55:30;1.95;;;0.88;;
78916;SDS011;68315;48.608;11.436;2024-02-21T12:57:55;2.73;;;1.00;;
78916;SDS011;68315;48.608;11.436;2024-02-21T13:00:22;1.55;;;0.90;;
78916;SDS011;68315;48.608;11.436;2024-02-21T13:02:51;2.60;;;1.05;;
78916;SDS011;68315;48.608;11.436;2024-02-21T13:05:16;1.73;;;1.05;;
78916;SDS011;68315;48.608;11.436;2024-02-21T13:07:42;2.33;;;0.90;;
78916;SDS011;68315;48.608;11.436;2024-02-21T13:10:07;1.00;;;0.80;;
78916;SDS011;68315;48.608;11.436;2024-02-21T13:12:33;1.50;;;0.93;;
78916;SDS011;68315;48.608;11.436;2024-02-21T13:14:58;1.85;;;1.10;;
78916;SDS011;68315;48.608;11.436;2024-02-21T13:17:23;1.93;;;1.23;;
78916;SDS011;68315;48.608;11.436;2024-02-21T13:19:49;1.23;;;0.90;;
78916;SDS011;68315;48.608;11.436;2024-02-21T13:22:14;1.33;;;0.90;;
78916;SDS011;68315;48.608;11.436;2024-02-21T13:24:39;2.58;;;1.02;;
78916;SDS011;68315;48.608;11.436;2024-02-21T13:27:05;1.85;;;1.20;;
78916;SDS011;68315;48.608;11.436;2024-02-21T13:29:30;3.37;;;1.03;;
78916;SDS011;68315;48.608;11.436;2024-02-21T13:31:55;1.58;;;0.90;;
78916;SDS011;68315;48.608;11.436;2024-02-21T13:34:20;1.73;;;1.00;;
78916;SDS011;68315;48.608;11.436;2024-02-21T13:36:46;1.90;;;1.10;;
78916;SDS011;68315;48.608;11.436;2024-02-21T13:39:11;2.40;;;1.10;;
78916;SDS011;68315;48.608;11.436;2024-02-21T13:41:40;1.50;;;1.10;;
78916;SDS011;68315;48.608;11.436;2024-02-21T13:44:07;1.85;;;1.10;;
78916;SDS011;68315;48.608;11.436;2024-02-21T13:46:32;3.70;;;1.20;;
78916;SDS011;68315;48.608;11.436;2024-02-21T13:49:02;1.73;;;1.08;;
78916;SDS011;68315;48.608;11.436;2024-02-21T13:51:32;3.20;;;1.00;;
78916;SDS011;68315;48.608;11.436;2024-02-21T13:53:58;1.10;;;0.90;;
78916;SDS011;68315;48.608;11.436;2024-02-21T13:56:24;1.80;;;1.20;;
78916;SDS011;68315;48.608;11.436;2024-02-21T13:58:49;1.70;;;1.30;;
78916;SDS011;68315;48.608;11.436;2024-02-21T14:01:15;3.17;;;1.15;;
78916;SDS011;68315;48.608;11.436;2024-02-21T14:03:40;1.43;;;1.10;;
78916;SDS011;68315;48.608;11.436;2024-02-21T14:06:06;3.55;;;1.20;;
78916;SDS011;68315;48.608;11.436;2024-02-21T14:08:31;6.57;;;4.07;;
78916;SDS011;68315;48.608;11.436;2024-02-21T14:10:59;2.65;;;1.50;;
78916;SDS011;68315;48.608;11.436;2024-02-21T14:13:25;2.05;;;1.30;;
78916;SDS011;68315;48.608;11.436;2024-02-21T14:15:50;2.10;;;1.00;;
78916;SDS011;68315;48.608;11.436;2024-02-21T14:18:16;1.20;;;0.90;;
78916;SDS011;68315;48.608;11.436;2024-02-21T14:20:41;1.08;;;0.90;;
78916;SDS011;68315;48.608;11.436;2024-02-21T14:23:06;2.33;;;1.00;;
78916;SDS011;68315;48.608;11.436;2024-02-21T14:25:31;1.45;;;1.02;;
78916;SDS011;68315;48.608;11.436;2024-02-21T14:27:58;1.42;;;0.80;;
78916;SDS011;68315;48.608;11.436;2024-02-21T14:30:25;1.25;;;0.85;;